Big Bear Station Historical Data
Daily Summary for April 24, 2017 Units:  English    Metric   Both
« Previous Day
Next Day »
Daily Weekly Monthly Yearly Custom
  High: Low: Average:
Temperature: 62.1 °F 39.9 °F 49.4 °F
Dew Point: 43.9 °F 14.1 °F 31.1 °F
Humidity: 84 % 28 % 51 %
Wind Speed: 13.5 mph 0.0 mph 4.9 mph
Wind Gust: -999.0 mph - -
Wind:- - West
Pressure: 30.05 in 29.96 in -
Precipitation: 0.00 in    
Historical Graphs
 
 
Tabular Data for April 24, 2017
Time Temperature Dew Point Pressure Wind Wind Speed Wind Gust Humidity Rainfall Rate (Hourly)
00:13 40.6 °F 29.4 °F 30.04 in South 3.2 mph -999.0 mph 64 % 0 in
00:28 40.1 °F 29.3 °F 30.03 in Calm   -999.0 mph 65 % 0 in
00:43 39.9 °F 28.3 °F 30.03 in Calm   -999.0 mph 63 % 0 in
00:58 41.9 °F 23.6 °F 30.02 in Calm   -999.0 mph 48 % 0 in
01:14 43.3 °F 22.8 °F 30.02 in NW 1.7 mph -999.0 mph 44 % 0 in
01:29 45.0 °F 24.4 °F 30.02 in Calm   -999.0 mph 44 % 0 in
01:44 45.3 °F 19.2 °F 30.01 in WSW 2.2 mph -999.0 mph 35 % 0 in
01:59 45.5 °F 21.3 °F 30.01 in Calm   -999.0 mph 38 % 0 in
02:14 45.3 °F 19.2 °F 30.01 in Calm   -999.0 mph 35 % 0 in
02:30 45.7 °F 18.9 °F 30.01 in ESE 2.7 mph -999.0 mph 34 % 0 in
02:45 45.1 °F 16.2 °F 30.01 in SSE 1.7 mph -999.0 mph 31 % 0 in
03:00 44.4 °F 17.1 °F 30.00 in Calm   -999.0 mph 33 % 0 in
03:15 44.1 °F 20.1 °F 30.01 in South 2.2 mph -999.0 mph 38 % 0 in
03:30 43.3 °F 18.8 °F 30.00 in Calm   -999.0 mph 37 % 0 in
03:46 42.8 °F 19.5 °F 29.99 in Calm   -999.0 mph 39 % 0 in
04:01 42.4 °F 20.9 °F 30.00 in South 2.2 mph -999.0 mph 42 % 0 in
04:16 42.1 °F 21.2 °F 30.00 in South 2.2 mph -999.0 mph 43 % 0 in
04:31 43.2 °F 22.7 °F 30.00 in SSW 2.2 mph -999.0 mph 44 % 0 in
04:46 42.4 °F 22.0 °F 30.00 in South 3.2 mph -999.0 mph 44 % 0 in
05:02 43.3 °F 19.4 °F 30.00 in SSW 1.7 mph -999.0 mph 38 % 0 in
05:17 44.8 °F 17.4 °F 30.00 in South 3.2 mph -999.0 mph 33 % 0 in
05:32 45.3 °F 14.1 °F 30.01 in South 1.7 mph -999.0 mph 28 % 0 in
05:47 45.1 °F 14.7 °F 30.01 in SSE 2.7 mph -999.0 mph 29 % 0 in
06:03 44.4 °F 16.4 °F 30.00 in South 2.7 mph -999.0 mph 32 % 0 in
06:18 43.3 °F 16.8 °F 30.01 in Calm   -999.0 mph 34 % 0 in
06:33 42.8 °F 16.3 °F 30.01 in SSE 2.2 mph -999.0 mph 34 % 0 in
06:48 43.5 °F 18.3 °F 30.02 in South 1.7 mph -999.0 mph 36 % 0 in
07:03 44.2 °F 19.6 °F 30.02 in South 2.2 mph -999.0 mph 37 % 0 in
07:19 45.9 °F 21.7 °F 30.02 in SSE 1.7 mph -999.0 mph 38 % 0 in
07:34 47.7 °F 20.7 °F 30.02 in WSW 2.2 mph -999.0 mph 34 % 0 in
07:49 50.2 °F 22.9 °F 30.02 in West 3.7 mph -999.0 mph 34 % 0 in
08:04 50.9 °F 25.5 °F 30.02 in NW 2.7 mph -999.0 mph 37 % 0 in
08:19 52.0 °F 27.2 °F 30.03 in NW 6.8 mph -999.0 mph 38 % 0 in
08:35 52.7 °F 27.1 °F 30.03 in NNW 8.9 mph -999.0 mph 37 % 0 in
08:50 53.1 °F 28.1 °F 30.03 in NW 9.4 mph -999.0 mph 38 % 0 in
09:06 54.1 °F 30.3 °F 30.03 in NNW 8.3 mph -999.0 mph 40 % 0 in
09:21 54.3 °F 32.3 °F 30.03 in NNW 4.7 mph -999.0 mph 43 % 0 in
09:36 53.8 °F 31.8 °F 30.04 in NNW 10.4 mph -999.0 mph 43 % 0 in
09:52 53.4 °F 32.6 °F 30.04 in NW 10.9 mph -999.0 mph 45 % 0 in
10:07 54.0 °F 33.7 °F 30.05 in NNW 10.9 mph -999.0 mph 46 % 0 in
10:23 53.4 °F 34.7 °F 30.05 in NW 13.5 mph -999.0 mph 49 % 0 in
10:38 53.4 °F 35.7 °F 30.05 in NNW 10.9 mph -999.0 mph 51 % 0 in
10:53 54.0 °F 36.8 °F 30.05 in NNW 11.9 mph -999.0 mph 52 % 0 in
11:09 55.2 °F 36.9 °F 30.05 in NW 9.4 mph -999.0 mph 50 % 0 in
11:24 56.5 °F 37.6 °F 30.05 in NNW 9.4 mph -999.0 mph 49 % 0 in
11:40 56.7 °F 37.2 °F 30.05 in NW 7.3 mph -999.0 mph 48 % 0 in
11:55 59.5 °F 37.6 °F 30.05 in North 8.3 mph -999.0 mph 44 % 0 in
12:10 61.2 °F 37.9 °F 30.05 in North 4.2 mph -999.0 mph 42 % 0 in
12:25 61.0 °F 38.3 °F 30.05 in NNW 5.3 mph -999.0 mph 43 % 0 in
12:41 58.3 °F 38.2 °F 30.04 in West 5.8 mph -999.0 mph 47 % 0 in
12:56 59.9 °F 38.5 °F 30.04 in NW 7.8 mph -999.0 mph 45 % 0 in
13:12 59.9 °F 37.9 °F 30.03 in West 9.4 mph -999.0 mph 44 % 0 in
13:27 60.4 °F 37.2 °F 30.03 in NW 8.3 mph -999.0 mph 42 % 0 in
13:42 59.5 °F 38.1 °F 30.03 in NW 11.4 mph -999.0 mph 45 % 0 in
13:57 62.1 °F 39.9 °F 30.03 in NW 8.3 mph -999.0 mph 44 % 0 in
14:13 61.0 °F 38.9 °F 30.02 in ENE 6.8 mph -999.0 mph 44 % 0 in
14:28 60.4 °F 39.5 °F 30.02 in NW 4.7 mph -999.0 mph 46 % 0 in
14:44 61.5 °F 40.5 °F 30.02 in WNW 7.3 mph -999.0 mph 46 % 0 in
14:59 59.5 °F 38.1 °F 30.01 in NW 7.3 mph -999.0 mph 45 % 0 in
15:14 59.4 °F 40.8 °F 30.01 in NNW 7.3 mph -999.0 mph 50 % 0 in
15:29 56.7 °F 39.8 °F 30.01 in West 2.7 mph -999.0 mph 53 % 0 in
15:45 57.9 °F 40.9 °F 30.00 in WNW 5.8 mph -999.0 mph 53 % 0 in
16:00 55.9 °F 42.2 °F 30.00 in NNW 4.7 mph -999.0 mph 60 % 0 in
16:16 56.1 °F 40.2 °F 30.00 in North 6.8 mph -999.0 mph 55 % 0 in
16:31 55.9 °F 43.9 °F 30.00 in WNW 3.7 mph -999.0 mph 64 % 0 in
16:46 50.5 °F 43.2 °F 30.00 in WNW 6.3 mph -999.0 mph 76 % 0 in
17:01 51.1 °F 43.5 °F 30.00 in SSW 2.2 mph -999.0 mph 75 % 0 in
17:17 50.4 °F 43.5 °F 30.00 in NW 5.3 mph -999.0 mph 77 % 0 in
17:33 49.1 °F 42.9 °F 29.99 in East 3.2 mph -999.0 mph 79 % 0 in
17:48 49.3 °F 42.4 °F 29.99 in NNW 7.3 mph -999.0 mph 77 % 0 in
18:03 48.2 °F 42.0 °F 29.98 in WNW 3.2 mph -999.0 mph 79 % 0 in
18:18 48.7 °F 42.5 °F 29.98 in NW 5.8 mph -999.0 mph 79 % 0 in
18:33 47.1 °F 41.6 °F 29.98 in NW 6.3 mph -999.0 mph 81 % 0 in
18:49 46.6 °F 40.4 °F 29.98 in NW 4.7 mph -999.0 mph 79 % 0 in
19:04 46.4 °F 39.2 °F 29.97 in WSW 7.3 mph -999.0 mph 76 % 0 in
19:19 45.1 °F 40.2 °F 29.98 in SSW 3.7 mph -999.0 mph 83 % 0 in
19:34 44.2 °F 39.4 °F 29.98 in North 4.7 mph -999.0 mph 83 % 0 in
19:50 43.9 °F 39.4 °F 29.97 in NW 8.3 mph -999.0 mph 84 % 0 in
20:05 45.7 °F 36.8 °F 29.97 in WNW 4.2 mph -999.0 mph 71 % 0 in
20:20 46.0 °F 36.8 °F 29.97 in WNW 8.9 mph -999.0 mph 70 % 0 in
20:36 45.9 °F 36.7 °F 29.97 in West 6.3 mph -999.0 mph 70 % 0 in
20:51 46.8 °F 33.2 °F 29.97 in WSW 8.3 mph -999.0 mph 59 % 0 in
21:06 47.3 °F 31.9 °F 29.97 in South 3.2 mph -999.0 mph 55 % 0 in
21:22 46.0 °F 33.7 °F 29.97 in NW 8.3 mph -999.0 mph 62 % 0 in
21:37 47.3 °F 30.6 °F 29.96 in West 4.2 mph -999.0 mph 52 % 0 in
21:52 46.4 °F 32.0 °F 29.97 in WNW 6.8 mph -999.0 mph 57 % 0 in
22:07 45.7 °F 33.4 °F 29.99 in NNW 3.2 mph -999.0 mph 62 % 0 in
22:22 44.6 °F 32.8 °F 29.98 in WSW 3.2 mph -999.0 mph 63 % 0 in
22:38 43.9 °F 32.5 °F 29.98 in West 4.7 mph -999.0 mph 64 % 0 in
22:53 43.9 °F 30.5 °F 29.98 in SW 1.7 mph -999.0 mph 59 % 0 in
23:08 43.2 °F 29.8 °F 29.97 in NW 5.8 mph -999.0 mph 59 % 0 in
23:23 44.2 °F 28.6 °F 29.98 in WNW 2.2 mph -999.0 mph 54 % 0 in
23:38 44.2 °F 27.7 °F 29.97 in NW 3.7 mph -999.0 mph 52 % 0 in
23:54 44.1 °F 27.1 °F 29.96 in NW 5.8 mph -999.0 mph 51 % 0 in
Big Bear CA Weather
Compliments of Weather Underground - 1.5 mb